Aeroporto :
LOGIN :

Iscrizione | Disclaimer

   EN    FR    IT 

 










Sommario :    VFR   VFR Marginale   IFR   IFR Intensivo   IFR Molto Intensivo
Visibilità : 
Base nubi : 
>= 8 km
>= 3000ft
5 / 8 km
1000 / 3000 ft
1500m / 5 km
500 / 1000 ft
800 / 1500m
200 / 500 ft
< 800m
< 200 ft
Simboli :   Temporali  Nebbia  Neve Forte  Precipitazioni Forti  Vento > 20 kt
SIGMETs :   Varie  Temporali  Ghiacco  Turbolenza  Onda orograficha  Ceneri Vulcaniche






- Altitudine del aeroporto : 408 ft
- Codice IATA : FKB


EDSB - Karlsruhe Baden Baden

ULTIMO METAR :
  • 211420Z VRB05KT 9999 VCSH FEW019 BKN029TCU BKN038 06/02 Q1019

METARs OBSOLETI :
  • 211350Z 29004KT 200V350 9999 -SNRA FEW019 BKN031 05/00 Q1019
  • 211320Z VRB03KT 9999 VCSH FEW030 07/00 Q1019
  • 211250Z 12004KT 060V150 9999 VCSH FEW027 07/02 Q1019
  • 211220Z 05007KT 030V090 9999 VCSH BKN024 BKN031 05/02 Q1019
  • 211150Z VRB05KT 9999 VCSH FEW018 07/02 Q1019
  • 211120Z 32003KT 230V360 9999 VCSH FEW017 BKN030 07/01 Q1019
  • 211050Z 07003KT 010V110 9999 VCSH FEW012 SCT023 BKN035 05/03 Q1019
  • 211020Z VRB06KT 9999 FEW012 SCT042 06/02 Q1019 RESHRA
  • 210950Z VRB02KT 9000 SHRAGS FEW018CB SCT022 BKN027 05/03 Q1019

TAF TAF EDSB
Valido dal 21 a 12 ore il 22 a 12 ore UTC


211100Z 2112/2212 VRB03KT 9999 BKN025
BECMG 2112/2114 01006KT
TEMPO 2112/2118 SHRA BKN025CB
PROB30
TEMPO 2112/2118 4000 TSRAGS BKN014CB
TEMPO 2118/2123 3500 RADZ BKN012
BECMG 2123/2203 03011KT



MetMap, La meteo Aeronautica in un colpo d'occhio ! - Copyright ORBIFLY Dicembre 2007 - Disclaimer

ORBIFLY MET'MAP TEAM :

Programmazione e sviluppo : Alexandra Zaïnal
Concezione : Baudouin d'Aumeries
Supporto tecnico e logistico : Manuel Goepfert
Aiuto : Marc-Olivier Méhu
Aiuto per la traduzione : Arnaldo La Scala




FONTI E CREDITI :

   NOAA